Time;durP1;ratioP1;P1;durP2;ratioP2;P2;SDS_P1;SDS_P2;PMS_P1;PMS_P2;Temp;Humidity;BMP_temperature;BMP_pressure;BME280_temperature;BME280_humidity;BME280_pressure;Samples;Min_cycle;Max_cycle;Signal;HPM_P1;HPM_P2
2023/10/30 00:00:41;;;;;;;8.35;1.25;;;;;;;13.16;72.16;99870.75;7392288;19;20034;-62
2023/10/30 00:03:11;;;;;;;2.95;0.90;;;;;;;13.15;72.23;99868.25;7389318;19;20023;-59
2023/10/30 00:05:39;;;;;;;4.68;1.50;;;;;;;13.20;71.97;99873.94;7391527;19;20014;-60
2023/10/30 00:08:06;;;;;;;6.63;1.40;;;;;;;13.23;71.74;99868.34;7391941;19;20031;-60
2023/10/30 00:10:35;;;;;;;7.63;2.05;;;;;;;13.21;71.68;99870.31;7391079;19;20498;-59
2023/10/30 00:13:03;;;;;;;5.00;1.50;;;;;;;13.24;71.47;99871.84;7392422;19;20022;-60
2023/10/30 00:15:31;;;;;;;6.50;1.50;;;;;;;13.18;71.70;99871.44;7392231;19;20033;-60
2023/10/30 00:17:58;;;;;;;5.57;1.30;;;;;;;13.25;71.13;99879.69;7392786;19;20414;-60
2023/10/30 00:20:26;;;;;;;5.60;1.38;;;;;;;13.23;71.25;99878.13;7391001;19;20014;-58
2023/10/30 00:22:54;;;;;;;6.78;2.28;;;;;;;13.16;71.36;99885.84;7390739;19;20019;-60
2023/10/30 00:25:22;;;;;;;7.75;2.47;;;;;;;13.14;71.17;99890.50;7391952;19;20010;-60
2023/10/30 00:27:49;;;;;;;7.90;1.40;;;;;;;13.20;71.19;99895.19;7392077;19;20025;-60
2023/10/30 00:30:18;;;;;;;5.03;1.23;;;;;;;13.14;71.34;99893.16;7390625;19;20025;-60
2023/10/30 00:32:45;;;;;;;6.13;1.35;;;;;;;13.15;71.20;99889.50;7392110;19;20634;-60
2023/10/30 00:35:13;;;;;;;6.13;1.20;;;;;;;13.14;71.19;99906.44;7392304;19;20047;-59
2023/10/30 00:37:40;;;;;;;3.90;1.10;;;;;;;13.08;71.54;99915.84;7392553;19;20460;-59
2023/10/30 00:40:08;;;;;;;3.78;1.08;;;;;;;13.15;71.30;99916.91;7388783;19;20039;-59
2023/10/30 00:42:36;;;;;;;6.47;1.13;;;;;;;13.15;71.19;99918.75;7390545;19;20015;-59
2023/10/30 00:45:05;;;;;;;7.47;1.30;;;;;;;13.16;71.19;99923.06;7391853;19;20019;-59
2023/10/30 00:47:38;;;;;;;3.80;1.00;;;;;;;13.20;71.02;99921.78;7391624;19;20033;-60
2023/10/30 00:50:07;;;;;;;5.20;1.60;;;;;;;13.16;71.17;99921.28;7388900;19;20022;-60
2023/10/30 00:52:35;;;;;;;6.32;1.73;;;;;;;13.17;71.48;99916.78;7391760;19;20240;-59
2023/10/30 00:55:03;;;;;;;7.90;2.28;;;;;;;13.15;71.29;99921.41;7391242;19;20104;-59
2023/10/30 00:57:30;;;;;;;6.57;1.77;;;;;;;13.15;71.18;99927.56;7391359;19;20010;-59
2023/10/30 00:59:59;;;;;;;4.55;1.38;;;;;;;13.11;71.24;99926.19;7387881;19;20340;-59
2023/10/30 01:02:27;;;;;;;5.40;1.17;;;;;;;13.10;71.15;99927.19;7389928;19;20028;-58
2023/10/30 01:04:55;;;;;;;4.93;1.33;;;;;;;13.11;71.24;99925.34;7389939;19;20018;-59
2023/10/30 01:07:23;;;;;;;5.28;1.27;;;;;;;13.17;70.76;99924.75;7391935;19;20022;-58
2023/10/30 01:09:51;;;;;;;3.03;0.82;;;;;;;13.11;71.06;99928.00;7386512;19;20022;-58
2023/10/30 01:12:19;;;;;;;6.45;1.38;;;;;;;12.99;71.59;99924.72;7390575;19;20025;-59
2023/10/30 01:14:47;;;;;;;5.25;1.50;;;;;;;13.07;71.48;99922.16;7393359;19;20014;-59
2023/10/30 01:17:15;;;;;;;6.13;1.20;;;;;;;13.15;71.32;99932.88;7398477;19;20029;-60
2023/10/30 01:19:43;;;;;;;6.65;1.40;;;;;;;13.12;71.57;99941.16;7394896;19;20089;-60
2023/10/30 01:22:10;;;;;;;5.93;1.38;;;;;;;13.18;71.18;99934.41;7397810;19;20522;-60
2023/10/30 01:24:38;;;;;;;7.70;1.50;;;;;;;13.11;71.58;99936.81;7398175;19;20022;-60
2023/10/30 01:27:06;;;;;;;6.75;1.63;;;;;;;13.10;71.51;99942.31;7398296;19;20504;-60
2023/10/30 01:29:34;;;;;;;6.05;1.40;;;;;;;13.14;71.54;99951.66;7394479;19;20021;-60
2023/10/30 01:32:01;;;;;;;9.25;1.48;;;;;;;13.11;71.87;99947.44;7397701;19;20035;-60
2023/10/30 01:34:29;;;;;;;6.38;1.52;;;;;;;13.09;71.94;99940.63;7395786;19;20026;-61
2023/10/30 01:36:57;;;;;;;5.72;1.25;;;;;;;13.11;71.97;99943.97;7397704;19;20035;-60
2023/10/30 01:39:24;;;;;;;5.47;1.40;;;;;;;13.17;71.79;99946.88;7394136;19;20043;-60
2023/10/30 01:41:53;;;;;;;5.85;1.55;;;;;;;13.07;72.40;99951.41;7397800;19;20039;-60
2023/10/30 01:44:21;;;;;;;6.63;1.50;;;;;;;13.16;71.86;99957.63;7395604;19;20034;-60
2023/10/30 01:46:49;;;;;;;6.70;1.40;;;;;;;13.21;71.79;99960.69;7397579;19;20030;-60
2023/10/30 01:49:16;;;;;;;10.00;1.25;;;;;;;13.19;71.94;99960.00;7395666;19;20094;-60
2023/10/30 01:51:45;;;;;;;6.45;1.10;;;;;;;13.14;72.36;99967.59;7396323;19;20022;-60
2023/10/30 01:54:14;;;;;;;7.90;1.65;;;;;;;13.10;72.30;99968.88;7396306;19;20015;-60
2023/10/30 01:56:42;;;;;;;7.35;1.58;;;;;;;13.12;72.64;99970.38;7395626;19;20379;-60
2023/10/30 01:59:10;;;;;;;5.28;1.27;;;;;;;13.11;72.40;99963.41;7395507;19;20025;-59
2023/10/30 02:01:38;;;;;;;5.47;1.33;;;;;;;13.10;72.62;99968.88;7395043;19;20021;-60
2023/10/30 02:04:06;;;;;;;8.77;1.50;;;;;;;13.09;72.87;99972.53;7394192;19;20015;-60
2023/10/30 02:06:33;;;;;;;9.80;1.67;;;;;;;13.12;72.68;99975.69;7397120;19;20018;-59
2023/10/30 02:09:01;;;;;;;6.15;1.25;;;;;;;13.16;72.59;99981.56;7394702;19;20022;-62
2023/10/30 02:11:29;;;;;;;8.70;1.63;;;;;;;13.24;72.59;99976.41;7395491;19;20029;-63
2023/10/30 02:13:57;;;;;;;7.63;1.38;;;;;;;13.17;72.63;99977.94;7396681;19;20022;-58
2023/10/30 02:16:24;;;;;;;8.30;1.58;;;;;;;13.30;72.44;99980.25;7396554;19;20015;-59
2023/10/30 02:18:52;;;;;;;7.15;1.40;;;;;;;13.27;72.48;99988.53;7395173;19;20433;-61
2023/10/30 02:21:20;;;;;;;7.88;1.63;;;;;;;13.34;72.36;99990.44;7395295;19;20006;-63
2023/10/30 02:23:48;;;;;;;8.40;1.70;;;;;;;13.29;72.55;99984.75;7394262;19;20397;-64
2023/10/30 02:26:16;;;;;;;7.47;1.67;;;;;;;13.31;72.47;99980.09;7393876;19;20070;-60
2023/10/30 02:28:43;;;;;;;7.55;1.35;;;;;;;13.26;72.78;99984.22;7394524;19;20043;-60
2023/10/30 02:31:11;;;;;;;6.65;1.60;;;;;;;13.28;72.59;99993.72;7394803;19;20018;-58
2023/10/30 02:33:38;;;;;;;8.98;1.65;;;;;;;13.32;72.74;99991.59;7394523;19;20125;-64
2023/10/30 02:36:06;;;;;;;9.00;1.67;;;;;;;13.36;72.37;99991.16;7395343;19;20514;-64
2023/10/30 02:38:35;;;;;;;8.18;1.58;;;;;;;13.36;72.42;99985.81;7393000;19;20022;-61
2023/10/30 02:41:03;;;;;;;7.50;1.50;;;;;;;13.31;72.72;99981.94;7395320;19;20030;-60
2023/10/30 02:43:30;;;;;;;8.70;1.80;;;;;;;13.30;72.57;99989.06;7394258;19;20022;-60
2023/10/30 02:45:58;;;;;;;8.35;1.83;;;;;;;13.37;72.46;99992.81;7395505;19;20539;-61
2023/10/30 02:48:26;;;;;;;9.93;1.90;;;;;;;13.39;72.48;99985.53;7394996;19;20504;-61
2023/10/30 02:50:53;;;;;;;10.43;1.90;;;;;;;13.36;72.50;99982.34;7393538;19;20019;-60
2023/10/30 02:53:21;;;;;;;8.25;1.80;;;;;;;13.35;72.53;99983.28;7394746;19;20018;-60
2023/10/30 02:55:48;;;;;;;10.63;1.95;;;;;;;13.38;72.43;99985.66;7395371;19;20019;-60
2023/10/30 02:58:16;;;;;;;9.05;1.80;;;;;;;13.34;72.63;99993.09;7394279;19;20015;-62
2023/10/30 03:00:44;;;;;;;7.55;1.90;;;;;;;13.39;72.31;99995.31;7393340;19;20019;-62
2023/10/30 03:03:12;;;;;;;7.18;1.60;;;;;;;13.33;72.61;99994.09;7394227;19;20032;-62
2023/10/30 03:05:40;;;;;;;8.00;1.50;;;;;;;13.35;72.61;99999.25;7395074;19;20043;-62
2023/10/30 03:08:07;;;;;;;7.72;1.50;;;;;;;13.28;72.93;99995.50;7393113;19;20022;-62
2023/10/30 03:10:35;;;;;;;5.95;1.83;;;;;;;13.23;72.98;100001.28;7393220;19;20015;-61
2023/10/30 03:13:03;;;;;;;8.38;1.77;;;;;;;13.22;73.29;100004.06;7395239;19;20116;-62
2023/10/30 03:15:30;;;;;;;6.28;1.60;;;;;;;13.25;73.11;100009.13;7392792;19;20424;-62
2023/10/30 03:17:58;;;;;;;7.90;1.60;;;;;;;13.26;73.35;100003.66;7393666;19;20510;-62
2023/10/30 03:20:26;;;;;;;7.25;1.83;;;;;;;13.30;72.87;100002.38;7392721;19;20026;-62
2023/10/30 03:22:53;;;;;;;8.90;1.70;;;;;;;13.31;72.99;100012.00;7394113;19;20014;-62
2023/10/30 03:25:21;;;;;;;8.95;1.92;;;;;;;13.28;73.06;100006.16;7393731;19;20018;-62
2023/10/30 03:27:48;;;;;;;12.32;1.80;;;;;;;13.30;72.96;100012.16;7393401;19;20018;-61
2023/10/30 03:30:16;;;;;;;7.30;1.67;;;;;;;13.27;73.08;100023.09;7393724;19;20022;-61
2023/10/30 03:32:44;;;;;;;8.32;1.90;;;;;;;13.15;73.50;100009.13;7393529;19;20023;-61
2023/10/30 03:35:14;;;;;;;6.45;1.55;;;;;;;13.22;73.35;100012.88;7393851;19;20078;-62
2023/10/30 03:37:41;;;;;;;6.95;1.95;;;;;;;13.13;73.33;100021.75;7393124;19;20074;-61
2023/10/30 03:40:10;;;;;;;9.82;1.95;;;;;;;13.13;73.53;100016.44;7391164;19;20022;-61
2023/10/30 03:42:37;;;;;;;9.38;1.73;;;;;;;13.17;73.25;100017.81;7392968;19;20524;-61
2023/10/30 03:45:07;;;;;;;9.18;1.80;;;;;;;13.24;73.08;100020.72;7393351;19;20014;-58
2023/10/30 03:47:35;;;;;;;7.05;1.77;;;;;;;13.18;73.23;100017.66;7393178;19;20077;-60
2023/10/30 03:50:02;;;;;;;12.77;2.38;;;;;;;13.26;73.05;100030.25;7388599;19;20018;-59
2023/10/30 03:52:30;;;;;;;10.32;2.28;;;;;;;13.22;73.26;100020.03;7393969;19;20116;-59
2023/10/30 03:55:03;;;;;;;9.07;2.08;;;;;;;13.23;72.99;100016.38;7393308;19;20018;-59
2023/10/30 03:57:31;;;;;;;8.63;1.73;;;;;;;13.13;73.23;100021.75;7392518;19;20340;-59
2023/10/30 03:59:59;;;;;;;8.90;2.22;;;;;;;13.26;73.00;100022.25;7389941;19;20098;-59
2023/10/30 04:02:28;;;;;;;7.60;1.90;;;;;;;13.31;72.52;100025.31;7393158;19;20048;-60
2023/10/30 04:04:55;;;;;;;11.88;2.08;;;;;;;13.24;73.03;100026.03;7393213;19;20478;-60
2023/10/30 04:07:24;;;;;;;13.00;3.03;;;;;;;13.23;72.92;100021.69;7392955;19;20078;-60
2023/10/30 04:09:51;;;;;;;9.82;2.70;;;;;;;13.27;72.91;100023.09;7388682;19;20014;-60
2023/10/30 04:12:20;;;;;;;10.30;2.90;;;;;;;13.25;72.75;100019.75;7392770;19;20011;-58
2023/10/30 04:14:47;;;;;;;11.48;2.85;;;;;;;13.23;72.91;100019.91;7392539;19;20020;-58
2023/10/30 04:17:15;;;;;;;10.52;2.90;;;;;;;13.27;72.58;100015.13;7393002;19;20047;-59
2023/10/30 04:19:43;;;;;;;11.63;3.13;;;;;;;13.28;72.69;100027.41;7390120;19;20350;-60
2023/10/30 04:22:10;;;;;;;11.25;3.17;;;;;;;13.22;72.80;100020.84;7392836;19;20503;-60
2023/10/30 04:24:38;;;;;;;11.40;3.65;;;;;;;13.21;72.91;100031.66;7391704;19;20015;-60
2023/10/30 04:27:06;;;;;;;9.43;2.50;;;;;;;13.13;73.24;100029.72;7392527;19;20018;-60
2023/10/30 04:29:34;;;;;;;13.00;2.35;;;;;;;13.14;73.10;100031.41;7389305;19;20022;-61
2023/10/30 04:32:01;;;;;;;10.13;2.17;;;;;;;13.24;72.48;100031.38;7391932;19;20015;-61
2023/10/30 04:34:29;;;;;;;11.93;2.90;;;;;;;13.29;72.27;100031.78;7392573;19;20022;-62
2023/10/30 04:36:57;;;;;;;8.73;2.33;;;;;;;13.35;72.31;100023.19;7392394;19;20021;-61
2023/10/30 04:39:25;;;;;;;10.35;2.55;;;;;;;13.38;72.23;100025.56;7389018;19;20376;-61
2023/10/30 04:41:56;;;;;;;9.48;1.80;;;;;;;13.33;72.36;100023.34;7391989;19;20043;-61
2023/10/30 04:44:24;;;;;;;11.18;2.20;;;;;;;13.29;72.46;100023.81;7390480;19;20029;-62
2023/10/30 04:46:52;;;;;;;9.43;2.30;;;;;;;13.29;72.65;100029.94;7391309;19;20022;-61
2023/10/30 04:49:19;;;;;;;6.47;2.15;;;;;;;13.24;72.50;100034.88;7388825;19;20043;-61
2023/10/30 04:51:47;;;;;;;12.50;2.08;;;;;;;13.27;72.58;100034.56;7390099;19;20365;-60
2023/10/30 04:54:14;;;;;;;10.90;1.98;;;;;;;13.30;72.15;100041.41;7391663;19;20029;-60
2023/10/30 04:56:42;;;;;;;8.55;2.30;;;;;;;13.29;72.29;100045.06;7391394;19;20022;-60
2023/10/30 04:59:10;;;;;;;9.02;1.90;;;;;;;13.23;72.45;100041.16;7389982;19;20030;-60
2023/10/30 05:01:37;;;;;;;6.90;1.92;;;;;;;13.25;72.70;100038.38;7392583;19;20007;-61
2023/10/30 05:04:05;;;;;;;8.25;2.00;;;;;;;13.24;72.66;100034.88;7390189;19;20547;-59
2023/10/30 05:06:33;;;;;;;10.80;2.03;;;;;;;13.21;72.70;100034.31;7390452;19;20077;-60
2023/10/30 05:09:01;;;;;;;9.68;1.92;;;;;;;13.21;72.64;100040.47;7391179;19;20026;-60
2023/10/30 05:11:28;;;;;;;7.32;1.88;;;;;;;13.26;72.73;100038.22;7390681;19;20047;-60
2023/10/30 05:13:56;;;;;;;9.27;1.83;;;;;;;13.31;72.41;100049.25;7391881;19;20045;-61
2023/10/30 05:16:24;;;;;;;10.20;1.98;;;;;;;13.25;72.87;100043.69;7391752;19;20027;-61
2023/10/30 05:18:51;;;;;;;10.20;2.08;;;;;;;13.14;73.36;100052.66;7390937;19;20104;-61
2023/10/30 05:21:19;;;;;;;8.55;2.30;;;;;;;13.13;73.27;100051.00;7390722;19;20483;-59
2023/10/30 05:23:46;;;;;;;9.82;2.17;;;;;;;13.17;73.25;100049.72;7391569;19;20014;-59
2023/10/30 05:26:14;;;;;;;11.50;2.05;;;;;;;13.23;73.06;100041.16;7392640;19;20078;-58
2023/10/30 05:28:42;;;;;;;9.07;2.25;;;;;;;13.29;72.65;100047.72;7390492;19;20085;-61
2023/10/30 05:31:09;;;;;;;10.93;2.40;;;;;;;13.20;73.07;100044.09;7389734;19;20018;-61
2023/10/30 05:33:37;;;;;;;7.10;1.92;;;;;;;13.23;73.13;100046.47;7390293;19;20043;-61
2023/10/30 05:36:05;;;;;;;11.15;2.40;;;;;;;13.28;72.67;100046.91;7390498;19;20035;-62
2023/10/30 05:38:33;;;;;;;14.50;2.47;;;;;;;13.25;72.99;100044.53;7389341;19;20047;-61
2023/10/30 05:41:00;;;;;;;12.10;2.20;;;;;;;13.21;73.02;100047.59;7389461;19;20036;-63
2023/10/30 05:43:28;;;;;;;12.20;2.58;;;;;;;13.24;73.04;100036.69;7390099;19;20074;-61
2023/10/30 05:45:56;;;;;;;9.38;2.13;;;;;;;13.33;72.77;100044.63;7390092;19;20047;-60
2023/10/30 05:48:24;;;;;;;9.23;2.17;;;;;;;13.27;72.68;100039.88;7390488;19;20023;-61
2023/10/30 05:50:51;;;;;;;9.45;2.08;;;;;;;13.22;73.06;100031.50;7389556;19;20033;-61
2023/10/30 05:53:19;;;;;;;9.00;1.90;;;;;;;13.15;73.18;100038.38;7390755;19;20078;-59
2023/10/30 05:55:47;;;;;;;14.48;2.00;;;;;;;13.10;73.43;100044.16;7390893;19;20017;-61
2023/10/30 05:58:14;;;;;;;11.07;2.38;;;;;;;13.02;73.65;100037.91;7387520;19;20018;-62
2023/10/30 06:00:43;;;;;;;12.05;2.20;;;;;;;13.01;73.87;100033.53;7388876;19;20023;-61
2023/10/30 06:03:11;;;;;;;12.55;2.38;;;;;;;13.03;73.82;100039.56;7396017;19;20032;-62
2023/10/30 06:05:38;;;;;;;12.52;2.45;;;;;;;13.04;73.65;100043.88;7397268;19;20015;-61
2023/10/30 06:08:06;;;;;;;12.68;2.90;;;;;;;13.02;73.58;100045.88;7397790;19;20014;-63
2023/10/30 06:10:38;;;;;;;15.05;2.70;;;;;;;13.05;73.89;100050.88;7396007;19;20108;-61
2023/10/30 06:13:07;;;;;;;15.02;2.38;;;;;;;12.96;73.97;100055.25;7396831;19;20011;-59
2023/10/30 06:15:35;;;;;;;16.00;2.72;;;;;;;13.02;73.78;100065.31;7400045;19;20078;-61
2023/10/30 06:18:03;;;;;;;14.25;2.10;;;;;;;13.07;73.71;100057.72;7396860;19;20394;-62
2023/10/30 06:20:31;;;;;;;15.02;2.35;;;;;;;12.97;73.98;100070.19;7401486;19;20043;-61
2023/10/30 06:22:59;;;;;;;15.43;2.50;;;;;;;12.94;74.15;100073.19;7396624;19;20017;-60
2023/10/30 06:25:27;;;;;;;21.13;2.90;;;;;;;12.87;74.39;100075.56;7396973;19;20022;-59
2023/10/30 06:27:55;;;;;;;17.60;2.35;;;;;;;12.96;74.40;100083.66;7396886;19;20029;-60
2023/10/30 06:30:23;;;;;;;19.35;2.80;;;;;;;12.88;74.31;100087.88;7395924;19;20035;-59
2023/10/30 06:32:50;;;;;;;22.00;2.67;;;;;;;12.96;74.37;100088.97;7394525;19;20090;-60
2023/10/30 06:35:18;;;;;;;13.88;2.33;;;;;;;13.02;74.09;100091.06;7396271;19;20022;-60
2023/10/30 06:37:47;;;;;;;13.27;2.58;;;;;;;12.97;74.17;100086.16;7394576;19;20035;-59
2023/10/30 06:40:15;;;;;;;14.27;2.40;;;;;;;12.89;74.28;100092.19;7394917;19;20468;-59
2023/10/30 06:42:42;;;;;;;13.18;2.65;;;;;;;12.85;74.63;100092.63;7396492;19;20018;-60
2023/10/30 06:45:10;;;;;;;11.02;1.92;;;;;;;12.81;74.64;100102.69;7392801;19;20091;-59
2023/10/30 06:47:37;;;;;;;8.68;1.92;;;;;;;12.80;74.83;100106.34;7396049;19;20078;-60
2023/10/30 06:50:05;;;;;;;9.73;2.22;;;;;;;12.88;74.52;100100.31;7392935;19;20015;-59
2023/10/30 06:52:33;;;;;;;12.00;2.28;;;;;;;12.84;74.51;100105.09;7395917;19;20547;-59
2023/10/30 06:55:00;;;;;;;15.38;2.10;;;;;;;12.85;74.81;100109.41;7395755;19;20030;-60
2023/10/30 06:57:28;;;;;;;10.75;2.40;;;;;;;12.91;74.36;100122.13;7395773;19;20043;-60
2023/10/30 06:59:57;;;;;;;17.38;2.83;;;;;;;12.98;74.00;100114.44;7392523;19;20153;-60
2023/10/30 07:02:25;;;;;;;14.70;2.83;;;;;;;12.88;74.50;100114.44;7395124;19;20419;-60
2023/10/30 07:04:52;;;;;;;19.77;2.67;;;;;;;12.75;74.83;100121.91;7394094;19;20029;-59
2023/10/30 07:07:20;;;;;;;16.15;2.45;;;;;;;12.75;74.73;100113.91;7395328;19;20055;-59
2023/10/30 07:09:48;;;;;;;14.82;2.38;;;;;;;12.84;74.72;100112.22;7391798;19;20086;-59
2023/10/30 07:12:15;;;;;;;11.63;2.47;;;;;;;12.85;74.78;100109.41;7394516;19;20021;-59
2023/10/30 07:14:43;;;;;;;10.43;2.00;;;;;;;12.92;74.15;100113.16;7394742;19;20021;-59
2023/10/30 07:17:10;;;;;;;9.25;2.08;;;;;;;12.87;74.49;100115.44;7393417;19;20018;-61
2023/10/30 07:19:39;;;;;;;10.02;1.98;;;;;;;12.91;74.35;100116.81;7392253;19;20018;-61
2023/10/30 07:22:07;;;;;;;11.02;2.20;;;;;;;12.91;74.37;100129.28;7395038;19;20011;-61
2023/10/30 07:24:35;;;;;;;11.48;2.15;;;;;;;12.92;74.51;100133.59;7394223;19;20748;-61
2023/10/30 07:27:02;;;;;;;10.25;1.90;;;;;;;12.98;74.10;100134.84;7394650;19;20022;-61
2023/10/30 07:29:30;;;;;;;10.95;2.03;;;;;;;12.98;74.16;100138.34;7390224;19;20362;-61
2023/10/30 07:31:58;;;;;;;11.30;1.95;;;;;;;12.88;74.22;100133.03;7392180;19;20374;-61
2023/10/30 07:34:25;;;;;;;11.55;2.38;;;;;;;12.91;74.47;100138.06;7393806;19;20010;-61
2023/10/30 07:36:53;;;;;;;13.65;2.03;;;;;;;12.99;73.99;100132.03;7394289;19;20027;-61
2023/10/30 07:39:21;;;;;;;13.52;2.40;;;;;;;12.94;74.33;100129.00;7392618;19;20018;-61
2023/10/30 07:41:48;;;;;;;8.80;2.20;;;;;;;12.97;74.22;100131.34;7394096;19;20024;-60
2023/10/30 07:44:16;;;;;;;10.50;2.33;;;;;;;13.06;74.04;100133.16;7393223;19;20022;-61
2023/10/30 07:46:43;;;;;;;11.13;2.47;;;;;;;13.11;73.72;100135.38;7393554;19;20035;-60
2023/10/30 07:49:11;;;;;;;10.20;2.30;;;;;;;13.03;74.11;100128.09;7392727;19;20011;-60
2023/10/30 07:51:39;;;;;;;9.23;2.08;;;;;;;12.99;74.38;100132.03;7392193;19;20033;-60
2023/10/30 07:54:06;;;;;;;9.85;2.10;;;;;;;13.11;74.26;100135.38;7393598;19;20039;-60
2023/10/30 07:56:34;;;;;;;12.60;2.30;;;;;;;13.13;74.22;100138.72;7393586;19;20018;-60
2023/10/30 07:59:05;;;;;;;11.25;2.28;;;;;;;13.16;73.82;100146.41;7392015;19;20017;-61
2023/10/30 08:01:35;;;;;;;14.93;2.60;;;;;;;13.19;74.18;100138.13;7393301;19;20374;-60
2023/10/30 08:04:03;;;;;;;12.23;2.35;;;;;;;13.23;73.97;100131.56;7392939;19;20019;-61
2023/10/30 08:06:32;;;;;;;12.55;2.47;;;;;;;13.28;73.92;100142.63;7393118;19;20018;-60
2023/10/30 08:09:00;;;;;;;15.32;2.50;;;;;;;13.38;73.55;100132.78;7392290;19;20014;-61
2023/10/30 08:11:28;;;;;;;13.25;2.10;;;;;;;13.39;73.78;100139.78;7391881;19;20546;-61
2023/10/30 08:13:58;;;;;;;12.85;2.72;;;;;;;13.40;73.51;100136.13;7390767;19;20491;-61
2023/10/30 08:16:26;;;;;;;9.18;2.60;;;;;;;13.45;73.38;100149.00;7392359;19;20030;-61
2023/10/30 08:18:54;;;;;;;13.30;2.55;;;;;;;13.47;73.47;100147.03;7392038;19;20022;-61
2023/10/30 08:21:21;;;;;;;10.00;2.05;;;;;;;13.49;73.67;100150.38;7390065;19;20042;-61
2023/10/30 08:23:49;;;;;;;14.75;2.88;;;;;;;13.48;73.55;100146.03;7389286;19;20567;-61
2023/10/30 08:26:17;;;;;;;12.63;2.63;;;;;;;13.49;74.02;100149.53;7389548;19;20015;-61
2023/10/30 08:28:45;;;;;;;11.10;2.17;;;;;;;13.49;73.75;100154.84;7391503;19;20015;-61
2023/10/30 08:31:15;;;;;;;10.13;2.22;;;;;;;13.53;73.64;100169.53;7391589;19;20039;-61
2023/10/30 08:33:43;;;;;;;8.18;1.83;;;;;;;13.62;73.35;100160.66;7392370;19;20021;-61
2023/10/30 08:36:22;;;;;;;10.93;2.28;;;;;;;13.66;73.09;100170.06;7391944;19;20043;-61
2023/10/30 08:38:50;;;;;;;7.50;1.92;;;;;;;13.62;73.19;100165.97;7391348;19;20030;-61
2023/10/30 08:41:22;;;;;;;9.45;2.25;;;;;;;13.68;72.86;100160.09;7390783;19;20039;-61
2023/10/30 08:43:49;;;;;;;10.35;1.85;;;;;;;13.70;72.96;100165.25;7391085;19;20047;-61
2023/10/30 08:46:20;;;;;;;9.57;2.00;;;;;;;13.67;73.29;100163.75;7390540;19;20019;-61
2023/10/30 08:48:48;;;;;;;9.60;2.05;;;;;;;13.76;72.86;100162.00;7391144;19;20097;-61
2023/10/30 08:51:15;;;;;;;8.77;2.20;;;;;;;13.83;72.79;100168.41;7390958;19;20074;-62
2023/10/30 08:53:43;;;;;;;11.60;2.20;;;;;;;13.98;72.20;100174.91;7391254;19;20025;-61
2023/10/30 08:56:11;;;;;;;9.07;2.13;;;;;;;13.99;72.17;100178.41;7391402;19;20018;-61
2023/10/30 08:58:38;;;;;;;9.20;2.22;;;;;;;13.96;72.01;100187.53;7391089;19;20336;-61
2023/10/30 09:01:06;;;;;;;10.10;2.20;;;;;;;14.05;71.80;100193.78;7390712;19;20049;-62
2023/10/30 09:03:33;;;;;;;9.98;1.92;;;;;;;14.09;71.60;100197.84;7391422;19;20359;-61
2023/10/30 09:06:01;;;;;;;8.27;2.00;;;;;;;14.08;71.63;100191.69;7389686;19;20015;-61
2023/10/30 09:08:29;;;;;;;12.68;2.28;;;;;;;14.13;71.62;100188.56;7390946;19;20393;-61
2023/10/30 09:10:57;;;;;;;8.07;2.13;;;;;;;14.18;71.31;100180.94;7365298;19;20022;-61
2023/10/30 09:14:28;;;;;;;10.00;1.70;;;;;;;14.13;71.30;100183.22;7402530;19;20329;-61
2023/10/30 09:16:55;;;;;;;10.63;2.15;;;;;;;14.17;71.10;100181.09;7427969;19;20014;-62
2023/10/30 09:19:23;;;;;;;11.18;2.33;;;;;;;14.28;71.09;100184.38;7425373;19;20026;-61
2023/10/30 09:21:52;;;;;;;10.30;2.10;;;;;;;14.22;70.95;100192.97;7427544;19;20091;-61
2023/10/30 09:24:23;;;;;;;11.50;2.30;;;;;;;14.24;70.88;100196.34;7423557;19;20074;-61
2023/10/30 09:26:51;;;;;;;10.85;2.15;;;;;;;14.33;71.07;100198.06;7430609;19;20487;-62
2023/10/30 09:29:18;;;;;;;11.18;2.03;;;;;;;14.35;70.75;100200.63;7426897;19;20025;-62
2023/10/30 09:31:46;;;;;;;9.88;2.38;;;;;;;14.33;70.91;100206.06;7426740;19;20028;-61
2023/10/30 09:34:13;;;;;;;9.13;2.13;;;;;;;14.35;70.82;100216.59;7428132;19;20015;-61
2023/10/30 09:36:41;;;;;;;10.82;2.30;;;;;;;14.33;71.10;100211.41;7427705;19;20018;-61
2023/10/30 09:39:09;;;;;;;7.47;1.95;;;;;;;14.38;70.51;100211.81;7426979;19;20022;-61
2023/10/30 09:41:41;;;;;;;9.77;2.10;;;;;;;14.35;70.48;100212.09;7427509;19;20506;-61
2023/10/30 09:44:09;;;;;;;12.27;2.40;;;;;;;14.28;70.56;100208.34;7428529;19;20022;-61
2023/10/30 09:46:41;;;;;;;9.07;2.08;;;;;;;14.29;70.76;100201.19;7430549;19;20478;-61
2023/10/30 09:49:13;;;;;;;10.98;2.05;;;;;;;14.34;70.50;100204.25;7428430;19;20367;-61
2023/10/30 09:51:45;;;;;;;12.80;2.20;;;;;;;14.37;70.46;100191.47;7428439;19;20022;-61
2023/10/30 09:54:14;;;;;;;8.68;2.25;;;;;;;14.40;70.60;100193.00;7430507;19;20018;-60
2023/10/30 09:56:44;;;;;;;13.70;2.47;;;;;;;14.39;70.51;100196.66;7430296;19;20488;-60
2023/10/30 09:59:16;;;;;;;12.82;2.30;;;;;;;14.48;70.24;100194.91;7426140;19;20011;-60
2023/10/30 10:01:44;;;;;;;9.10;2.50;;;;;;;14.46;70.45;100186.19;7427983;19;20018;-60
2023/10/30 10:04:11;;;;;;;11.05;2.10;;;;;;;14.54;70.24;100200.50;7428079;19;20014;-60
2023/10/30 10:06:40;;;;;;;10.23;2.40;;;;;;;14.66;69.93;100198.44;7428571;19;20037;-60
2023/10/30 10:09:08;;;;;;;14.25;2.90;;;;;;;14.67;69.98;100197.44;7429394;19;20041;-60
2023/10/30 10:11:37;;;;;;;11.38;2.63;;;;;;;14.68;70.06;100191.09;7427159;19;20033;-59
2023/10/30 10:14:04;;;;;;;9.00;2.35;;;;;;;14.68;69.89;100190.28;7432286;19;20035;-61
2023/10/30 10:16:35;;;;;;;11.90;2.08;;;;;;;14.75;69.62;100199.34;7430705;19;20809;-60
2023/10/30 10:19:20;;;;;;;9.90;2.17;;;;;;;14.82;69.07;100187.91;7428966;19;20022;-60
2023/10/30 10:21:49;;;;;;;8.68;1.80;;;;;;;14.77;69.82;100197.38;7428523;19;20043;-60
2023/10/30 10:24:35;;;;;;;11.57;2.35;;;;;;;14.81;69.58;100191.56;7416651;19;20026;-59
2023/10/30 10:27:06;;;;;;;11.23;2.33;;;;;;;14.85;69.47;100198.25;7401223;19;20090;-60
2023/10/30 10:29:35;;;;;;;8.43;2.20;;;;;;;14.99;69.11;100188.00;7396323;19;20622;-60
2023/10/30 10:32:04;;;;;;;10.27;2.30;;;;;;;15.00;69.23;100197.72;7400344;19;20014;-61
2023/10/30 10:34:33;;;;;;;14.45;2.72;;;;;;;15.04;69.26;100204.41;7400068;19;20018;-62
2023/10/30 10:37:02;;;;;;;12.02;2.58;;;;;;;15.06;69.06;100199.75;7399108;19;20089;-62
2023/10/30 10:39:50;;;;;;;9.63;1.80;;;;;;;15.10;68.93;100201.94;7397048;19;20830;-61
2023/10/30 10:42:27;;;;;;;11.93;2.35;;;;;;;15.11;69.10;100198.28;7400716;19;20034;-60
2023/10/30 10:44:56;;;;;;;12.95;2.28;;;;;;;15.13;68.66;100198.13;7399553;19;20022;-62
2023/10/30 10:47:24;;;;;;;10.30;2.28;;;;;;;15.09;68.73;100188.75;7400263;19;20018;-61
2023/10/30 10:49:52;;;;;;;10.02;2.22;;;;;;;15.11;68.46;100179.63;7395533;19;20503;-62
2023/10/30 10:52:20;;;;;;;9.82;2.15;;;;;;;15.20;68.53;100185.84;7399771;19;20014;-63
2023/10/30 10:55:00;;;;;;;10.18;2.35;;;;;;;15.28;68.31;100182.38;7399317;19;20019;-62
2023/10/30 10:57:39;;;;;;;9.80;2.30;;;;;;;15.23;67.82;100177.53;7399673;19;20018;-62
2023/10/30 11:00:11;;;;;;;9.85;2.13;;;;;;;15.07;68.30;100194.28;7395820;19;20086;-62
2023/10/30 11:02:40;;;;;;;10.40;2.10;;;;;;;15.01;68.22;100186.88;7396147;19;20018;-63
2023/10/30 11:05:08;;;;;;;11.57;2.47;;;;;;;14.91;68.30;100183.47;7399266;19;20010;-62
2023/10/30 11:08:06;;;;;;;10.40;2.10;;;;;;;14.92;68.21;100179.81;7397893;19;20395;-62
2023/10/30 11:10:39;;;;;;;8.82;2.20;;;;;;;14.89;68.53;100180.13;7396252;19;20014;-61
2023/10/30 11:13:19;;;;;;;8.90;2.20;;;;;;;14.98;68.20;100176.50;7397810;19;20023;-62
2023/10/30 11:15:56;;;;;;;11.30;2.08;;;;;;;15.03;67.78;100170.72;7393980;19;20014;-60
2023/10/30 11:18:27;;;;;;;9.77;2.17;;;;;;;15.11;67.60;100168.97;7398444;19;20014;-62
2023/10/30 11:21:16;;;;;;;13.80;2.30;;;;;;;15.17;67.13;100158.66;7397961;19;20026;-59
2023/10/30 11:23:44;;;;;;;8.95;2.00;;;;;;;15.13;67.63;100152.78;7397837;19;20110;-59
2023/10/30 11:26:30;;;;;;;12.25;2.20;;;;;;;15.34;67.21;100155.09;7396060;19;20014;-58
2023/10/30 11:28:59;;;;;;;8.18;2.00;;;;;;;15.34;67.33;100160.44;7394324;19;20352;-58
2023/10/30 11:31:32;;;;;;;10.07;2.03;;;;;;;15.60;66.55;100163.03;7395046;19;20018;-60